Time;durP1;ratioP1;P1;durP2;ratioP2;P2;SDS_P1;SDS_P2;PMS_P1;PMS_P2;Temp;Humidity;BMP_temperature;BMP_pressure;BME280_temperature;BME280_humidity;BME280_pressure;Samples;Min_cycle;Max_cycle;Signal;HPM_P1;HPM_P2
2023/06/06 00:01:30;;;;;;;7.97;4.25;;;;;;;14.70;66.75;101933.50;5079209;28;20027;-80
2023/06/06 00:03:56;;;;;;;6.63;4.32;;;;;;;14.63;66.96;101934.53;5076790;28;20025;-80
2023/06/06 00:06:24;;;;;;;7.97;4.20;;;;;;;14.59;66.93;101938.13;5082412;28;20036;-79
2023/06/06 00:08:52;;;;;;;7.38;4.50;;;;;;;14.53;67.21;101940.88;5080240;28;20036;-80
2023/06/06 00:11:18;;;;;;;8.43;4.45;;;;;;;14.49;67.14;101934.03;5079309;28;20032;-79
2023/06/06 00:13:43;;;;;;;7.18;4.32;;;;;;;14.45;67.21;101935.00;5080086;28;20023;-80
2023/06/06 00:16:12;;;;;;;6.30;4.00;;;;;;;14.42;67.23;101931.53;5080900;28;20060;-80
2023/06/06 00:18:39;;;;;;;7.40;4.50;;;;;;;14.36;67.40;101934.31;5086510;28;20025;-79
2023/06/06 00:21:04;;;;;;;7.35;4.50;;;;;;;14.35;67.48;101932.56;5071217;28;20021;-79
2023/06/06 00:23:30;;;;;;;6.90;3.88;;;;;;;14.33;67.21;101934.41;5070469;28;20616;-79
2023/06/06 00:25:56;;;;;;;6.88;4.57;;;;;;;14.29;67.52;101934.50;5071890;28;20472;-79
2023/06/06 00:28:21;;;;;;;9.88;4.78;;;;;;;14.27;67.69;101931.91;5067044;28;20067;-79
2023/06/06 00:30:46;;;;;;;7.80;4.88;;;;;;;14.26;67.75;101935.44;5068397;28;20049;-80
2023/06/06 00:33:11;;;;;;;6.75;4.18;;;;;;;14.22;67.50;101933.78;5067777;28;20391;-80
2023/06/06 00:35:37;;;;;;;7.47;4.13;;;;;;;14.20;67.82;101935.56;5074718;28;20031;-79
2023/06/06 00:38:02;;;;;;;7.50;4.85;;;;;;;14.15;67.92;101934.84;5071155;28;20020;-80
2023/06/06 00:40:27;;;;;;;7.45;4.78;;;;;;;14.11;68.19;101929.66;5072755;28;20020;-80
2023/06/06 00:42:52;;;;;;;8.32;4.20;;;;;;;14.07;68.32;101938.47;5075903;28;20491;-79
2023/06/06 00:45:18;;;;;;;6.57;4.25;;;;;;;14.04;68.11;101935.91;5081815;28;20123;-79
2023/06/06 00:47:44;;;;;;;7.65;4.68;;;;;;;14.01;68.10;101941.22;5066609;28;20493;-79
2023/06/06 00:50:12;;;;;;;7.53;4.68;;;;;;;13.98;68.25;101940.44;5079102;28;20024;-79
2023/06/06 00:52:39;;;;;;;7.18;4.60;;;;;;;13.93;68.44;101938.78;5072638;28;20026;-79
2023/06/06 00:55:05;;;;;;;7.40;3.90;;;;;;;13.90;68.48;101938.00;5076499;28;20039;-79
2023/06/06 00:57:31;;;;;;;6.78;4.43;;;;;;;13.86;68.59;101931.97;5076012;28;20139;-79
2023/06/06 00:59:57;;;;;;;8.00;4.80;;;;;;;13.84;68.49;101938.13;5068048;28;20471;-80
2023/06/06 01:02:24;;;;;;;8.43;4.70;;;;;;;13.78;68.64;101932.16;5068717;28;20490;-79
2023/06/06 01:04:52;;;;;;;8.02;4.78;;;;;;;13.75;68.89;101942.66;5068784;28;20383;-79
2023/06/06 01:07:17;;;;;;;7.53;4.60;;;;;;;13.74;68.58;101942.72;5070165;28;20051;-79
2023/06/06 01:09:45;;;;;;;8.77;4.68;;;;;;;13.70;68.69;101934.06;5073775;28;20464;-79
2023/06/06 01:12:37;;;;;;;8.27;4.65;;;;;;;13.69;67.46;101947.16;5070427;28;20035;-79
2023/06/06 01:15:27;;;;;;;8.10;5.05;;;;;;;13.61;67.74;101942.94;5070042;28;20024;-79
2023/06/06 01:17:53;;;;;;;7.60;4.68;;;;;;;13.56;69.08;101944.81;5070796;28;20063;-79
2023/06/06 01:20:21;;;;;;;8.10;4.97;;;;;;;13.49;69.26;101949.28;5078164;28;20076;-80
2023/06/06 01:22:48;;;;;;;8.10;4.63;;;;;;;13.44;69.15;101940.69;5071659;28;20169;-79
2023/06/06 01:25:19;;;;;;;6.93;4.47;;;;;;;13.40;69.53;101939.03;5072678;28;20020;-79
2023/06/06 01:27:45;;;;;;;7.37;4.60;;;;;;;13.36;69.55;101939.94;5080370;28;20024;-80
2023/06/06 01:30:10;;;;;;;7.68;4.28;;;;;;;13.30;69.86;101938.31;5084948;28;20077;-79
2023/06/06 01:32:50;;;;;;;8.75;4.90;;;;;;;13.27;69.61;101945.34;5079117;28;20051;-79
2023/06/06 01:35:51;;;;;;;8.70;5.07;;;;;;;13.26;69.12;101935.78;5062487;28;20101;-79
2023/06/06 01:38:22;;;;;;;7.45;4.75;;;;;;;13.22;69.61;101932.38;5062589;28;20028;-79
2023/06/06 01:40:51;;;;;;;8.27;4.50;;;;;;;13.16;70.08;101938.56;5062741;28;20020;-79
2023/06/06 01:43:18;;;;;;;8.25;4.63;;;;;;;13.11;70.43;101931.72;5064918;28;20455;-79
2023/06/06 01:45:45;;;;;;;7.55;5.00;;;;;;;13.07;70.51;101936.13;5063503;28;20035;-79
2023/06/06 01:48:11;;;;;;;9.57;5.15;;;;;;;13.05;70.60;101932.69;5065758;28;20130;-80
2023/06/06 01:50:37;;;;;;;7.85;4.75;;;;;;;13.03;70.50;101934.47;5077119;28;20575;-79
2023/06/06 01:53:03;;;;;;;7.47;4.35;;;;;;;13.01;70.60;101931.03;5067296;28;20044;-79
2023/06/06 01:55:28;;;;;;;8.48;4.80;;;;;;;13.01;70.62;101941.47;5074764;28;20027;-79
2023/06/06 01:57:53;;;;;;;8.82;5.10;;;;;;;12.98;70.99;101931.94;5069717;28;20035;-79
2023/06/06 02:00:20;;;;;;;8.68;5.13;;;;;;;12.96;70.75;101936.34;5073756;28;20082;-79
2023/06/06 02:02:45;;;;;;;7.85;5.07;;;;;;;12.92;70.85;101934.66;5075886;28;20383;-79
2023/06/06 02:05:12;;;;;;;9.27;5.03;;;;;;;12.89;70.71;101934.75;5076555;28;20020;-80
2023/06/06 02:07:37;;;;;;;7.85;4.72;;;;;;;12.84;70.83;101929.56;5077165;28;20025;-79
2023/06/06 02:10:04;;;;;;;8.55;4.78;;;;;;;12.80;70.86;101935.75;5063475;28;20020;-79
2023/06/06 02:12:30;;;;;;;6.60;4.22;;;;;;;12.76;71.00;101941.91;5081788;28;20375;-79
2023/06/06 02:14:55;;;;;;;8.93;5.10;;;;;;;12.71;71.30;101931.56;5072118;28;20535;-79
2023/06/06 02:17:21;;;;;;;9.75;5.07;;;;;;;12.68;71.32;101933.34;5087696;28;20028;-79
2023/06/06 02:19:46;;;;;;;7.05;4.47;;;;;;;12.65;71.14;101928.16;5076914;28;20356;-79
2023/06/06 02:22:12;;;;;;;9.38;4.88;;;;;;;12.65;71.43;101934.25;5071369;28;20063;-79
2023/06/06 02:24:37;;;;;;;7.85;4.45;;;;;;;12.63;71.37;101936.03;5072433;28;20050;-79
2023/06/06 02:27:04;;;;;;;7.53;4.70;;;;;;;12.58;71.28;101936.13;5072340;28;20025;-79
2023/06/06 02:29:29;;;;;;;7.15;4.63;;;;;;;12.53;71.54;101935.31;5073457;28;20544;-79
2023/06/06 02:31:54;;;;;;;7.30;4.70;;;;;;;12.52;71.50;101935.38;5074378;28;20053;-79
2023/06/06 02:34:21;;;;;;;8.82;4.85;;;;;;;12.49;71.52;101936.25;5070520;28;20048;-79
2023/06/06 02:36:49;;;;;;;7.53;4.63;;;;;;;12.45;71.83;101940.66;5081501;28;20028;-79
2023/06/06 02:39:14;;;;;;;8.52;4.75;;;;;;;12.44;72.03;101935.50;5082975;28;20412;-79
2023/06/06 02:41:40;;;;;;;8.15;4.75;;;;;;;12.43;71.97;101936.38;5067007;28;20142;-79
2023/06/06 02:44:06;;;;;;;8.55;4.55;;;;;;;12.38;71.66;101933.81;5073873;28;20024;-79
2023/06/06 02:46:31;;;;;;;7.72;4.78;;;;;;;12.36;71.74;101934.72;5067741;28;20048;-79
2023/06/06 02:48:56;;;;;;;8.88;4.70;;;;;;;12.34;71.64;101933.88;5074102;28;20024;-79
2023/06/06 02:51:23;;;;;;;8.10;4.70;;;;;;;12.31;71.74;101934.81;5071499;28;20395;-79
2023/06/06 02:53:49;;;;;;;8.07;4.70;;;;;;;12.27;71.81;101934.00;5070019;28;20052;-79
2023/06/06 02:56:16;;;;;;;7.13;4.28;;;;;;;12.25;71.84;101941.00;5070479;28;20112;-79
2023/06/06 02:58:42;;;;;;;6.38;4.25;;;;;;;12.23;71.85;101929.72;5073795;28;20099;-79
2023/06/06 03:01:09;;;;;;;7.63;4.63;;;;;;;12.20;71.57;101931.50;5070735;28;20039;-79
2023/06/06 03:03:34;;;;;;;7.88;4.47;;;;;;;12.16;72.25;101938.50;5070093;28;20410;-79
2023/06/06 03:06:00;;;;;;;7.93;4.50;;;;;;;12.13;72.09;101935.94;5068753;28;20021;-79
2023/06/06 03:08:26;;;;;;;8.70;4.72;;;;;;;12.10;72.15;101949.03;5073638;28;20052;-79
2023/06/06 03:10:52;;;;;;;7.97;4.88;;;;;;;12.06;72.54;101945.59;5080110;28;20482;-79
2023/06/06 03:13:17;;;;;;;8.13;4.50;;;;;;;12.05;72.38;101948.25;5071103;28;20107;-79
2023/06/06 03:15:46;;;;;;;7.78;4.68;;;;;;;12.03;72.48;101944.78;5074458;28;20417;-79
2023/06/06 03:18:20;;;;;;;7.30;4.60;;;;;;;12.02;72.78;101948.28;5067789;28;20036;-80
2023/06/06 03:20:46;;;;;;;7.82;4.95;;;;;;;11.99;72.79;101942.22;5072481;28;20099;-79
2023/06/06 03:23:12;;;;;;;7.78;4.60;;;;;;;11.97;72.90;101950.91;5068741;28;20035;-79
2023/06/06 03:25:43;;;;;;;9.05;4.28;;;;;;;11.94;72.98;101945.75;5072009;28;20024;-79
2023/06/06 03:28:12;;;;;;;7.18;4.70;;;;;;;11.90;73.07;101949.25;5072436;28;20100;-79
2023/06/06 03:30:38;;;;;;;9.18;4.70;;;;;;;11.88;72.81;101945.81;5070748;28;20020;-79
2023/06/06 03:33:06;;;;;;;8.57;4.82;;;;;;;11.87;73.08;101944.97;5075955;28;20502;-79
2023/06/06 03:35:33;;;;;;;9.25;4.70;;;;;;;11.86;72.94;101947.59;5069289;28;20460;-79
2023/06/06 03:37:59;;;;;;;7.20;4.40;;;;;;;11.88;72.83;101948.41;5073735;28;20375;-79
2023/06/06 03:40:24;;;;;;;7.40;4.28;;;;;;;11.86;72.84;101943.25;5070995;28;20028;-79
2023/06/06 03:42:50;;;;;;;8.05;4.35;;;;;;;11.87;72.96;101944.13;5065821;28;20111;-79
2023/06/06 03:45:16;;;;;;;7.60;4.68;;;;;;;11.85;73.06;101946.72;5073319;28;20416;-79
2023/06/06 03:47:41;;;;;;;8.80;4.72;;;;;;;11.84;72.98;101950.22;5064837;28;20025;-79
2023/06/06 03:50:07;;;;;;;7.55;4.68;;;;;;;11.83;73.31;101945.88;5072129;28;20025;-79
2023/06/06 03:52:32;;;;;;;8.77;4.65;;;;;;;11.82;73.21;101944.16;5069079;28;20020;-79
2023/06/06 03:54:58;;;;;;;7.18;4.35;;;;;;;11.81;73.16;101942.44;5076172;28;20411;-79
2023/06/06 03:57:23;;;;;;;8.02;4.80;;;;;;;11.82;73.30;101946.75;5079857;28;20028;-79
2023/06/06 03:59:49;;;;;;;8.20;4.60;;;;;;;11.83;73.23;101948.50;5072053;28;20379;-79
2023/06/06 04:02:17;;;;;;;7.82;4.78;;;;;;;11.80;73.28;101944.19;5069696;28;20035;-79
2023/06/06 04:04:42;;;;;;;8.10;4.80;;;;;;;11.78;73.73;101937.28;5068237;28;20442;-79
2023/06/06 04:07:07;;;;;;;8.68;4.70;;;;;;;11.79;73.38;101946.78;5069259;28;20082;-79
2023/06/06 04:09:33;;;;;;;11.18;4.53;;;;;;;11.80;73.25;101945.91;5067943;28;20032;-79
2023/06/06 04:11:58;;;;;;;12.00;4.65;;;;;;;11.81;73.29;101945.03;5071208;28;20036;-79
2023/06/06 04:14:23;;;;;;;8.15;4.57;;;;;;;11.82;73.37;101936.34;5069190;28;20502;-79
2023/06/06 04:16:48;;;;;;;8.90;4.15;;;;;;;11.82;73.64;101941.53;5069024;28;20025;-79
2023/06/06 04:19:14;;;;;;;7.75;5.13;;;;;;;11.82;73.71;101941.53;5069830;28;20032;-79
2023/06/06 04:21:40;;;;;;;8.50;5.10;;;;;;;11.80;73.79;101940.69;5076245;28;20039;-79
2023/06/06 04:24:05;;;;;;;9.18;4.53;;;;;;;11.81;73.61;101945.91;5069345;28;20383;-79
2023/06/06 04:26:31;;;;;;;7.50;4.60;;;;;;;11.83;73.99;101944.16;5064879;28;20032;-79
2023/06/06 04:28:59;;;;;;;8.32;4.72;;;;;;;11.84;73.99;101951.09;5065571;28;20517;-79
2023/06/06 04:31:26;;;;;;;6.72;4.43;;;;;;;11.83;73.98;101945.88;5066221;28;20096;-79
2023/06/06 04:33:54;;;;;;;10.50;5.10;;;;;;;11.84;74.00;101942.41;5069476;28;20147;-79
2023/06/06 04:36:21;;;;;;;10.25;4.97;;;;;;;11.90;74.02;101938.84;5067465;28;20028;-79
2023/06/06 04:38:48;;;;;;;8.65;4.82;;;;;;;11.89;74.19;101938.00;5071155;28;20025;-79
2023/06/06 04:41:15;;;;;;;8.13;4.47;;;;;;;11.93;74.30;101939.69;5070893;28;20024;-79
2023/06/06 04:43:40;;;;;;;7.63;4.88;;;;;;;11.92;74.41;101943.16;5069396;28;20028;-79
2023/06/06 04:46:06;;;;;;;8.20;4.63;;;;;;;11.94;74.46;101946.63;5064883;28;20025;-79
2023/06/06 04:48:31;;;;;;;8.57;4.38;;;;;;;11.98;74.18;101952.66;5065106;28;20078;-79
2023/06/06 04:50:57;;;;;;;7.30;4.80;;;;;;;12.03;74.66;101944.78;5074635;28;20055;-79
2023/06/06 04:53:23;;;;;;;7.30;4.50;;;;;;;12.06;73.88;101944.75;5068287;28;20551;-79
2023/06/06 04:55:49;;;;;;;9.27;4.82;;;;;;;12.08;74.26;101943.84;5069770;28;20050;-79
2023/06/06 04:58:16;;;;;;;8.73;4.88;;;;;;;12.11;74.27;101948.16;5070943;28;20029;-79
2023/06/06 05:00:47;;;;;;;9.93;4.95;;;;;;;12.14;74.12;101945.47;5077583;28;20023;-79
2023/06/06 05:03:18;;;;;;;9.30;4.82;;;;;;;12.19;74.10;101938.47;5061181;28;20737;-79
2023/06/06 05:05:46;;;;;;;7.15;4.63;;;;;;;12.23;73.98;101937.53;5068181;28;20146;-79
2023/06/06 05:08:12;;;;;;;8.77;4.68;;;;;;;12.27;74.89;101944.44;5066557;28;20016;-79
2023/06/06 05:10:39;;;;;;;8.10;4.57;;;;;;;12.30;74.39;101944.38;5067982;28;20446;-80
2023/06/06 05:13:04;;;;;;;7.30;4.35;;;;;;;12.35;74.41;101946.06;5064861;28;20149;-79
2023/06/06 05:15:30;;;;;;;7.65;4.70;;;;;;;12.39;74.13;101947.75;5069698;28;20103;-79
2023/06/06 05:17:56;;;;;;;7.10;4.38;;;;;;;12.47;73.46;101956.28;5070260;28;20032;-79
2023/06/06 05:20:24;;;;;;;7.82;4.85;;;;;;;12.51;73.82;101950.16;5067072;28;20025;-79
2023/06/06 05:22:50;;;;;;;7.88;4.97;;;;;;;12.58;73.50;101951.78;5063158;28;20480;-79
2023/06/06 05:25:15;;;;;;;9.68;5.05;;;;;;;12.63;73.59;101951.69;5071012;28;20032;-79
2023/06/06 05:27:41;;;;;;;7.85;5.07;;;;;;;12.70;73.42;101955.06;5071554;28;20028;-79
2023/06/06 05:30:07;;;;;;;8.65;4.78;;;;;;;12.73;73.33;101950.66;5063926;28;20043;-79
2023/06/06 05:32:32;;;;;;;9.05;4.82;;;;;;;12.80;72.81;101954.03;5060839;28;20032;-79
2023/06/06 05:34:58;;;;;;;7.65;4.60;;;;;;;12.84;72.32;101955.69;5067363;28;20036;-79
2023/06/06 05:37:23;;;;;;;8.77;5.20;;;;;;;12.92;72.24;101962.53;5062130;28;20512;-79
2023/06/06 05:39:48;;;;;;;9.82;4.82;;;;;;;12.97;73.25;101955.50;5064847;28;20028;-80
2023/06/06 05:42:14;;;;;;;9.43;5.10;;;;;;;13.02;72.19;101956.25;5067753;28;20108;-79
2023/06/06 05:44:39;;;;;;;8.77;4.85;;;;;;;13.07;72.65;101951.81;5067497;28;20402;-79
2023/06/06 05:47:05;;;;;;;9.75;4.72;;;;;;;13.13;72.48;101956.94;5068285;28;20024;-80
2023/06/06 05:49:31;;;;;;;9.35;4.75;;;;;;;13.18;72.22;101955.09;5068191;28;20024;-79
2023/06/06 05:51:56;;;;;;;7.65;4.40;;;;;;;13.23;71.87;101965.47;5068730;28;20024;-79
2023/06/06 05:54:22;;;;;;;8.60;4.80;;;;;;;13.29;71.92;101964.50;5068957;28;20549;-80
2023/06/06 05:56:48;;;;;;;6.93;4.43;;;;;;;13.36;71.35;101963.47;5069906;28;20028;-79
2023/06/06 05:59:13;;;;;;;9.20;4.75;;;;;;;13.40;71.56;101959.94;5070202;28;20032;-79
2023/06/06 06:01:39;;;;;;;8.82;4.20;;;;;;;13.44;72.43;101956.38;5066601;28;20048;-79
2023/06/06 06:04:06;;;;;;;6.70;4.15;;;;;;;13.50;73.32;101953.63;5068768;28;20461;-79
2023/06/06 06:06:31;;;;;;;7.55;3.92;;;;;;;13.58;72.50;101957.84;5070450;28;20094;-78
2023/06/06 06:08:57;;;;;;;7.00;4.10;;;;;;;13.64;71.99;101955.13;5064169;28;20028;-78
2023/06/06 06:11:23;;;;;;;8.55;4.20;;;;;;;13.70;72.38;101956.75;5069181;28;20028;-79
2023/06/06 06:13:48;;;;;;;7.28;4.57;;;;;;;13.75;70.82;101958.34;5069514;28;20020;-79
2023/06/06 06:16:13;;;;;;;7.82;4.18;;;;;;;13.80;71.63;101953.91;5072527;28;20020;-79
2023/06/06 06:18:39;;;;;;;8.20;4.40;;;;;;;13.85;70.68;101950.31;5063045;28;20395;-79
2023/06/06 06:21:04;;;;;;;7.85;4.43;;;;;;;13.91;70.73;101955.41;5069228;28;20498;-79
2023/06/06 06:23:29;;;;;;;8.48;4.65;;;;;;;13.95;71.62;101955.31;5074167;28;20029;-79
2023/06/06 06:25:55;;;;;;;8.07;4.25;;;;;;;14.01;70.44;101951.69;5065817;28;20405;-79
2023/06/06 06:28:21;;;;;;;6.53;3.80;;;;;;;14.08;71.94;101958.50;5065289;28;20066;-79
2023/06/06 06:30:47;;;;;;;8.73;3.83;;;;;;;14.16;71.14;101954.88;5068207;28;20037;-79
2023/06/06 06:33:12;;;;;;;6.45;4.00;;;;;;;14.23;70.67;101959.06;5065756;28;20563;-79
2023/06/06 06:35:37;;;;;;;8.85;4.40;;;;;;;14.30;69.32;101962.38;5059425;28;20901;-79
2023/06/06 06:38:03;;;;;;;5.65;3.90;;;;;;;14.37;71.12;101970.06;5059789;28;20037;-79
2023/06/06 06:40:28;;;;;;;5.82;3.83;;;;;;;14.44;70.87;101968.16;5055460;28;20024;-79
2023/06/06 06:42:53;;;;;;;6.55;4.18;;;;;;;14.49;70.81;101968.06;5063865;28;20040;-79
2023/06/06 06:45:21;;;;;;;9.85;4.68;;;;;;;14.58;70.56;101967.81;5066331;28;20025;-79
2023/06/06 06:47:46;;;;;;;8.18;4.10;;;;;;;14.67;70.22;101971.97;5067809;28;20025;-80
2023/06/06 06:50:11;;;;;;;8.82;4.05;;;;;;;14.71;69.18;101969.28;5069544;28;20090;-79
2023/06/06 06:52:37;;;;;;;6.45;3.90;;;;;;;14.77;69.81;101968.28;5068205;28;20472;-79
2023/06/06 06:55:06;;;;;;;7.82;4.20;;;;;;;14.83;69.89;101967.25;5067216;28;20040;-78
2023/06/06 06:57:31;;;;;;;6.75;4.00;;;;;;;14.90;69.80;101966.19;5071646;28;20028;-79
2023/06/06 07:00:00;;;;;;;7.38;4.25;;;;;;;14.95;69.03;101972.19;5075781;28;20036;-79
2023/06/06 07:02:27;;;;;;;38.55;7.38;;;;;;;15.00;68.65;101972.03;5071386;28;20058;-79
2023/06/06 07:04:53;;;;;;;10.07;4.63;;;;;;;15.07;69.49;101975.38;5071988;28;20035;-78
2023/06/06 07:07:19;;;;;;;6.53;4.32;;;;;;;15.09;68.33;101973.56;5070870;28;20108;-79
2023/06/06 07:09:44;;;;;;;8.07;4.43;;;;;;;15.14;67.58;101971.69;5063425;28;20143;-80
2023/06/06 07:12:11;;;;;;;8.80;4.70;;;;;;;15.13;67.67;101964.72;5061810;28;20529;-79
2023/06/06 07:14:36;;;;;;;6.72;4.53;;;;;;;15.15;68.41;101973.41;5065418;28;20033;-79
2023/06/06 07:17:01;;;;;;;6.55;4.28;;;;;;;15.22;68.62;101976.72;5072270;28;20621;-79
2023/06/06 07:19:27;;;;;;;6.93;4.30;;;;;;;15.28;68.70;101976.56;5070723;28;20043;-79
2023/06/06 07:21:52;;;;;;;7.72;4.13;;;;;;;15.34;69.35;101971.13;5069952;28;20107;-79
2023/06/06 07:24:20;;;;;;;6.03;3.88;;;;;;;15.40;68.26;101970.97;5068465;28;20047;-80
2023/06/06 07:26:45;;;;;;;7.45;4.20;;;;;;;15.45;68.30;101965.59;5067095;28;20069;-80
2023/06/06 07:29:11;;;;;;;6.18;4.10;;;;;;;15.49;66.89;101967.25;5068725;28;20407;-80
2023/06/06 07:31:37;;;;;;;6.85;4.20;;;;;;;15.51;67.42;101962.81;5067544;28;20474;-80
2023/06/06 07:34:03;;;;;;;6.82;4.53;;;;;;;15.55;67.48;101960.94;5064101;28;20059;-79
2023/06/06 07:36:30;;;;;;;7.47;4.18;;;;;;;15.60;67.58;101965.16;5060992;28;20048;-80
2023/06/06 07:38:57;;;;;;;7.53;4.20;;;;;;;15.63;66.78;101965.06;5070450;28;20730;-80
2023/06/06 07:41:22;;;;;;;7.18;4.25;;;;;;;15.67;66.45;101957.97;5064083;28;20046;-80
2023/06/06 07:43:48;;;;;;;7.70;4.40;;;;;;;15.71;66.63;101966.63;5064688;28;20598;-79
2023/06/06 07:46:13;;;;;;;5.97;4.25;;;;;;;15.71;66.39;101958.75;5069515;28;20443;-79
2023/06/06 07:48:38;;;;;;;7.00;4.60;;;;;;;15.76;66.39;101954.22;5069304;28;20020;-79
2023/06/06 07:51:07;;;;;;;7.18;4.25;;;;;;;15.81;66.70;101947.06;5064959;28;20024;-79
2023/06/06 07:53:32;;;;;;;8.55;4.70;;;;;;;15.85;65.81;101948.75;5068263;28;20044;-79
2023/06/06 07:55:57;;;;;;;8.73;4.55;;;;;;;15.92;66.91;101955.50;5062882;28;20025;-79
2023/06/06 07:58:26;;;;;;;8.27;4.75;;;;;;;15.99;66.32;101950.06;5062695;28;20024;-79
2023/06/06 08:00:51;;;;;;;7.90;4.40;;;;;;;16.03;66.44;101946.47;5053196;28;20032;-79
2023/06/06 08:03:16;;;;;;;8.23;4.38;;;;;;;16.07;64.89;101945.44;5056265;28;20035;-79
2023/06/06 08:05:42;;;;;;;7.43;4.75;;;;;;;16.10;66.18;101942.72;5058835;28;20021;-80
2023/06/06 08:08:07;;;;;;;6.43;4.43;;;;;;;16.14;65.35;101944.34;5056905;28;20112;-80
2023/06/06 08:10:33;;;;;;;6.95;4.47;;;;;;;16.19;66.28;101947.69;5064329;28;20024;-79
2023/06/06 08:13:01;;;;;;;6.43;4.82;;;;;;;16.27;66.59;101950.06;5059463;28;20040;-79
2023/06/06 08:15:27;;;;;;;7.85;4.85;;;;;;;16.32;64.95;101947.28;5058665;28;20036;-80
2023/06/06 08:17:52;;;;;;;7.78;4.88;;;;;;;16.36;64.70;101949.75;5061899;28;20024;-79
2023/06/06 08:20:18;;;;;;;6.22;4.18;;;;;;;16.41;64.47;101951.38;5063069;28;20032;-79
2023/06/06 08:22:52;;;;;;;8.00;4.78;;;;;;;16.44;65.18;101949.50;5060326;28;20035;-79
2023/06/06 08:25:18;;;;;;;6.85;4.32;;;;;;;16.48;64.74;101948.50;5064337;28;20024;-79
2023/06/06 08:27:43;;;;;;;8.68;5.00;;;;;;;16.54;64.95;101953.56;5059143;28;20082;-79
2023/06/06 08:30:09;;;;;;;8.98;4.85;;;;;;;16.57;62.81;101952.59;5059933;28;20063;-80
2023/06/06 08:32:37;;;;;;;7.85;4.88;;;;;;;16.57;64.26;101947.34;5056204;28;20025;-79
2023/06/06 08:35:03;;;;;;;9.00;4.28;;;;;;;16.61;64.67;101943.72;5058739;28;20115;-79
2023/06/06 08:37:28;;;;;;;9.85;5.10;;;;;;;16.67;64.61;101945.28;5064478;28;20836;-80
2023/06/06 08:39:54;;;;;;;8.93;5.00;;;;;;;16.71;64.66;101944.25;5058782;28;20083;-80
2023/06/06 08:42:22;;;;;;;8.18;4.78;;;;;;;16.76;64.25;101942.31;5057700;28;20046;-79
2023/06/06 08:44:48;;;;;;;8.80;4.40;;;;;;;16.83;63.50;101938.59;5061742;28;20032;-79
2023/06/06 08:47:14;;;;;;;8.50;4.90;;;;;;;16.87;63.29;101939.31;5056465;28;20087;-79
2023/06/06 08:49:40;;;;;;;11.63;5.20;;;;;;;16.91;64.38;101934.84;5060678;28;20028;-79
2023/06/06 08:52:06;;;;;;;8.35;4.75;;;;;;;16.96;64.42;101938.19;5063192;28;20529;-80
2023/06/06 08:54:32;;;;;;;7.20;3.92;;;;;;;17.02;63.65;101940.59;5060186;28;20052;-79
2023/06/06 08:56:59;;;;;;;8.35;4.45;;;;;;;17.10;63.88;101938.53;5058355;28;20131;-79
2023/06/06 08:59:25;;;;;;;7.68;4.40;;;;;;;17.17;63.56;101935.69;5057207;28;20032;-78
2023/06/06 09:01:51;;;;;;;7.20;4.22;;;;;;;17.25;63.14;101942.41;5059848;28;20028;-79
2023/06/06 09:04:20;;;;;;;7.07;4.38;;;;;;;17.32;62.73;101935.13;5060934;28;20044;-79
2023/06/06 09:06:46;;;;;;;10.88;4.85;;;;;;;17.38;63.02;101939.31;5057117;28;20641;-79
2023/06/06 09:09:12;;;;;;;7.35;4.22;;;;;;;17.44;62.65;101939.94;5053070;28;20039;-79
2023/06/06 09:11:38;;;;;;;8.15;4.07;;;;;;;17.51;62.72;101934.47;5058912;28;20029;-79
2023/06/06 09:14:10;;;;;;;7.75;4.18;;;;;;;17.58;61.48;101941.22;5058889;28;20103;-79
2023/06/06 09:16:35;;;;;;;8.35;4.75;;;;;;;17.64;62.19;101935.72;5057729;28;20444;-79
2023/06/06 09:19:02;;;;;;;8.50;4.65;;;;;;;17.69;62.99;101936.41;5064464;28;20499;-77
2023/06/06 09:21:29;;;;;;;9.10;4.53;;;;;;;17.70;60.78;101939.88;5060950;28;20028;-79
2023/06/06 09:23:56;;;;;;;9.82;4.95;;;;;;;17.71;61.97;101939.84;5059115;28;20124;-80
2023/06/06 09:26:22;;;;;;;7.70;4.63;;;;;;;17.73;61.59;101935.38;5060118;28;20067;-79
2023/06/06 09:28:48;;;;;;;7.50;4.50;;;;;;;17.80;62.30;101941.25;5066654;28;20036;-79
2023/06/06 09:31:25;;;;;;;7.70;4.93;;;;;;;17.90;62.87;101936.50;5066565;28;20024;-79
2023/06/06 09:33:52;;;;;;;7.43;4.50;;;;;;;17.97;62.07;101932.69;5067839;28;20117;-79
2023/06/06 09:36:27;;;;;;;8.00;4.40;;;;;;;18.03;62.25;101927.22;5065537;28;20096;-80
2023/06/06 09:38:53;;;;;;;8.95;4.47;;;;;;;18.10;61.29;101919.91;5071927;28;20078;-79
2023/06/06 09:41:19;;;;;;;9.63;4.68;;;;;;;18.17;61.84;101917.88;5062873;28;20035;-80
2023/06/06 09:43:44;;;;;;;8.70;4.50;;;;;;;18.21;61.64;101919.50;5066980;28;20036;-79
2023/06/06 09:46:15;;;;;;;7.47;4.85;;;;;;;18.26;60.58;101917.53;5067001;28;20031;-79
2023/06/06 09:48:40;;;;;;;9.70;4.95;;;;;;;18.28;58.72;101920.09;5062969;28;20021;-80
2023/06/06 09:51:09;;;;;;;6.80;4.43;;;;;;;18.32;61.12;101922.53;5061798;28;20027;-79
2023/06/06 09:53:36;;;;;;;6.60;4.00;;;;;;;18.37;60.06;101914.44;5067462;28;20049;-79
2023/06/06 09:56:04;;;;;;;9.07;4.30;;;;;;;18.42;59.90;101917.75;5070875;28;20086;-79
2023/06/06 09:58:34;;;;;;;5.88;4.13;;;;;;;18.52;59.80;101917.38;5063289;28;20039;-79
2023/06/06 10:00:59;;;;;;;6.85;4.13;;;;;;;18.59;59.08;101913.53;5063598;28;20031;-80
2023/06/06 10:03:25;;;;;;;6.10;4.07;;;;;;;18.64;58.59;101911.56;5066447;28;20020;-79
2023/06/06 10:05:51;;;;;;;7.47;4.10;;;;;;;18.71;58.17;101912.16;5065179;28;20364;-78
2023/06/06 10:08:18;;;;;;;9.07;4.53;;;;;;;18.74;59.12;101907.59;5064067;28;20468;-78
2023/06/06 10:10:46;;;;;;;5.50;3.85;;;;;;;18.78;58.23;101903.91;5059621;28;20036;-79
2023/06/06 10:13:22;;;;;;;6.13;4.28;;;;;;;18.81;58.67;101903.78;5057786;28;20021;-77
2023/06/06 10:15:49;;;;;;;6.95;4.05;;;;;;;18.86;58.46;101900.09;5063674;28;20033;-78
2023/06/06 10:18:16;;;;;;;7.30;4.03;;;;;;;18.92;58.29;101907.72;5063429;28;20078;-78
2023/06/06 10:20:44;;;;;;;6.47;4.20;;;;;;;19.02;59.12;101902.94;5063207;28;20039;-78
2023/06/06 10:23:09;;;;;;;7.60;4.45;;;;;;;19.09;58.48;101907.03;5064476;28;20480;-78
2023/06/06 10:25:38;;;;;;;7.75;4.55;;;;;;;19.15;58.56;101897.97;5063650;28;20033;-78
2023/06/06 10:28:32;;;;;;;7.30;3.92;;;;;;;19.23;58.15;101901.09;5067094;28;21264;-78
2023/06/06 10:31:27;;;;;;;7.57;4.57;;;;;;;19.28;57.95;101898.28;5071308;28;20035;-78
2023/06/06 10:34:00;;;;;;;6.03;4.20;;;;;;;19.28;57.17;101899.13;5073326;28;20507;-78
2023/06/06 10:36:25;;;;;;;7.68;4.50;;;;;;;19.25;55.58;101892.22;5073887;28;20056;-78
2023/06/06 10:39:19;;;;;;;6.75;4.20;;;;;;;19.26;57.49;101896.56;5068352;28;20054;-78
2023/06/06 10:41:52;;;;;;;8.30;4.45;;;;;;;19.34;57.16;101893.56;5065223;28;20032;-78
2023/06/06 10:44:53;;;;;;;6.45;4.43;;;;;;;19.42;57.25;101895.84;5063046;28;20030;-78
2023/06/06 10:47:23;;;;;;;6.20;3.78;;;;;;;19.49;56.56;101896.41;5063942;28;20520;-78
2023/06/06 10:50:07;;;;;;;7.55;4.00;;;;;;;19.53;56.62;101900.63;5066019;28;20032;-78
2023/06/06 10:52:59;;;;;;;7.50;4.30;;;;;;;19.52;56.52;101889.22;5063390;28;20474;-78
2023/06/06 10:55:24;;;;;;;5.90;3.92;;;;;;;19.58;54.45;101895.97;5067058;28;20060;-78
2023/06/06 10:58:31;;;;;;;6.63;4.03;;;;;;;19.65;56.35;101899.19;5061175;28;20054;-78
2023/06/06 11:01:06;;;;;;;7.15;3.95;;;;;;;19.69;55.36;101895.47;5005354;28;20136;-78
2023/06/06 11:03:37;;;;;;;6.03;3.75;;;;;;;19.77;55.72;101892.47;5002636;28;20030;-77
2023/06/06 11:06:16;;;;;;;;;;;;;;;19.83;56.35;101893.03;5043914;28;20117;-80
2023/06/06 11:08:57;;;;;;;6.55;3.55;;;;;;;19.89;55.37;101891.06;5072819;28;19999;-78
2023/06/06 11:11:27;;;;;;;6.32;3.45;;;;;;;19.93;54.81;101888.19;5067670;28;20028;-78
2023/06/06 11:14:00;;;;;;;6.53;3.55;;;;;;;20.00;54.81;101892.25;5068140;28;20033;-78
2023/06/06 11:16:37;;;;;;;7.43;3.60;;;;;;;20.02;55.24;101886.88;5062915;28;20044;-78
2023/06/06 11:19:04;;;;;;;8.07;3.85;;;;;;;20.07;54.00;101881.41;5065962;28;20093;-79
2023/06/06 11:21:30;;;;;;;6.15;3.88;;;;;;;20.13;54.76;101883.72;5069882;28;20420;-79
2023/06/06 11:23:57;;;;;;;5.70;3.50;;;;;;;20.17;54.13;101880.84;5068832;28;20050;-78
2023/06/06 11:26:22;;;;;;;5.97;3.60;;;;;;;20.22;53.22;101877.13;5071220;28;20035;-79